»·PEaware :: N434EP KEUG-KBFI

N434EP :: KEUG-KBFI

FLIGHT INFORMATION

Flight Status: Arrived
Operator: Privately registered:
United States
More flights under this callsign
Pilot: Drew H. (3199)
Aircraft: Unknown
(PIPA)
More flights by this aircraft type
Origin: KEUG Mahlon Sweet
United States
Destination: KBFI Boeing Field/King Co Intl
United States
More flights between these airports :: More routes between these airports
Route: UBG V165 OLM OLM2
File this flight plan on PilotEdge
Remarks:
Altitude:
(Current/Filed)
16,000ft
Speed:
(Current/Filed)
175kts
Departed: 27-Oct-18 08:36 AM
Arrived: 27-Oct-18 09:59 AM
Distance/Time
Traveled:
208nm/1:23
Distance/Time
To Go:
Arrived

Flight Plot

Page will automatically refresh every two minutes.

Flight plan parsing failed; only flown route is shown


Map Options




Map Legend


Flown Route
Filed Route
Departure Airport
Arrival Airport
Navaid (VOR, NDB)
Fix

Horizontal Profiles

Position Reports

Time Latitude Longitude Heading Altitude Ground
Speed
27-Oct-18 08:15 44.116683 -123.215868 42 377ft 0kts
27-Oct-18 08:16 44.116683 -123.215868 42 377ft 0kts
27-Oct-18 08:17 44.116683 -123.215868 42 377ft 0kts
27-Oct-18 08:18 44.116683 -123.215868 42 377ft 0kts
27-Oct-18 08:19 44.116683 -123.215868 42 377ft 0kts
27-Oct-18 08:20 44.116683 -123.215868 42 377ft 0kts
27-Oct-18 08:21 44.116683 -123.215868 42 377ft 0kts
27-Oct-18 08:22 44.116683 -123.215868 42 377ft 0kts
27-Oct-18 08:23 44.116683 -123.215868 42 377ft 0kts
27-Oct-18 08:24 44.116683 -123.215868 42 377ft 0kts
27-Oct-18 08:25 44.116683 -123.215868 42 377ft 0kts
27-Oct-18 08:26 44.116683 -123.215868 42 377ft 0kts
27-Oct-18 08:27 44.116683 -123.215868 42 377ft 0kts
27-Oct-18 08:28 44.116683 -123.215867 42 377ft 0kts
27-Oct-18 08:29 44.116683 -123.215867 42 377ft 0kts
27-Oct-18 08:30 44.116683 -123.215867 42 377ft 0kts
27-Oct-18 08:31 44.116683 -123.215867 42 377ft 0kts
27-Oct-18 08:32 44.116683 -123.215867 42 377ft 0kts
27-Oct-18 08:33 44.116683 -123.215867 42 377ft 0kts
27-Oct-18 08:34 44.116839 -123.215951 305 377ft 0kts
27-Oct-18 08:36 44.115568 -123.216445 247 377ft 9kts
27-Oct-18 08:36 44.113677 -123.217523 271 377ft 0kts
27-Oct-18 08:38 44.113677 -123.217523 271 377ft 0kts
27-Oct-18 08:38 44.120408 -123.218878 358 529ft 90kts
27-Oct-18 08:39 44.151811 -123.219896 358 1982ft 119kts
27-Oct-18 08:41 44.189736 -123.213613 7 3761ft 119kts
27-Oct-18 08:41 44.216692 -123.208068 5 5008ft 118kts
27-Oct-18 08:42 44.249422 -123.201393 3 6390ft 120kts
27-Oct-18 08:43 44.282950 -123.194621 1 7631ft 124kts
27-Oct-18 08:44 44.317624 -123.187669 359 8709ft 129kts
27-Oct-18 08:45 44.353784 -123.180456 358 9693ft 135kts
27-Oct-18 08:46 44.391844 -123.172886 357 10633ft 141kts
27-Oct-18 08:47 44.433732 -123.164633 358 11277ft 160kts
27-Oct-18 08:48 44.478098 -123.155758 358 11937ft 164kts
27-Oct-18 08:49 44.523563 -123.146639 358 12548ft 166kts
27-Oct-18 08:50 44.569682 -123.137384 357 13115ft 168kts
27-Oct-18 08:51 44.615949 -123.128094 357 13633ft 170kts
27-Oct-18 08:52 44.662972 -123.118651 356 14124ft 174kts
27-Oct-18 08:53 44.711486 -123.108896 356 14626ft 178kts
27-Oct-18 08:54 44.760661 -123.098969 356 15125ft 180kts
27-Oct-18 08:55 44.810250 -123.088942 355 15625ft 181kts
27-Oct-18 08:56 44.860358 -123.078857 355 15991ft 189kts
27-Oct-18 08:57 44.912893 -123.068201 355 15990ft 188kts
27-Oct-18 08:58 44.964042 -123.057802 355 15991ft 185kts
27-Oct-18 08:59 45.015917 -123.047383 357 15996ft 191kts
27-Oct-18 09:00 45.069208 -123.036596 359 16001ft 196kts
27-Oct-18 09:01 45.122915 -123.025661 1 16001ft 198kts
27-Oct-18 09:02 45.177433 -123.014405 1 16002ft 199kts
27-Oct-18 09:03 45.232014 -123.003162 1 16002ft 199kts
27-Oct-18 09:04 45.286914 -122.991857 1 16003ft 199kts
27-Oct-18 09:05 45.341625 -122.980585 1 16005ft 199kts
27-Oct-18 09:06 45.395262 -122.983980 347 16007ft 193kts
27-Oct-18 09:07 45.446380 -122.990053 346 16017ft 193kts
27-Oct-18 09:08 45.499865 -122.996568 346 16018ft 193kts
27-Oct-18 09:09 45.553348 -123.003169 346 16018ft 194kts
27-Oct-18 09:10 45.605325 -123.009632 346 16018ft 194kts
27-Oct-18 09:11 45.659113 -123.016354 346 16019ft 194kts
27-Oct-18 09:12 45.712703 -123.023075 346 16010ft 194kts
27-Oct-18 09:13 45.766594 -123.029848 346 16010ft 194kts
27-Oct-18 09:14 45.820536 -123.036643 346 16014ft 194kts
27-Oct-18 09:15 45.874325 -123.043442 346 16019ft 194kts
27-Oct-18 09:16 45.928092 -123.050251 346 16024ft 195kts
27-Oct-18 09:17 45.981990 -123.057088 346 16026ft 195kts
27-Oct-18 09:18 46.036088 -123.063962 346 16028ft 195kts
27-Oct-18 09:19 46.090415 -123.070881 346 15993ft 196kts
27-Oct-18 09:20 46.136954 -123.076808 346 15988ft 195kts
27-Oct-18 09:21 46.190839 -123.083686 346 15988ft 194kts
27-Oct-18 09:22 46.244530 -123.090564 346 15988ft 194kts
27-Oct-18 09:23 46.298365 -123.097478 346 15945ft 196kts
27-Oct-18 09:24 46.352704 -123.104464 346 15894ft 196kts
27-Oct-18 09:25 46.407302 -123.111495 346 15842ft 197kts
27-Oct-18 09:26 46.462217 -123.098214 8 15842ft 204kts
27-Oct-18 09:27 46.516955 -123.077755 8 15842ft 203kts
27-Oct-18 09:28 46.571728 -123.056944 8 15835ft 203kts
27-Oct-18 09:29 46.626196 -123.036061 8 15835ft 203kts
27-Oct-18 09:30 46.680816 -123.015003 9 15836ft 203kts
27-Oct-18 09:31 46.735220 -122.993950 9 15836ft 202kts
27-Oct-18 09:32 46.789536 -122.972874 9 15836ft 202kts
27-Oct-18 09:33 46.843900 -122.951732 9 15837ft 202kts
27-Oct-18 09:34 46.898089 -122.930688 10 15839ft 202kts
27-Oct-18 09:35 46.952789 -122.909614 15 15847ft 205kts
27-Oct-18 09:36 46.998845 -122.865575 47 15844ft 198kts
27-Oct-18 09:37 47.038881 -122.815522 48 15468ft 182kts
27-Oct-18 09:38 47.076670 -122.767617 47 14760ft 178kts
27-Oct-18 09:39 47.125120 -122.757719 5 13953ft 191kts
27-Oct-18 09:40 47.177504 -122.755840 5 13111ft 186kts
27-Oct-18 09:41 47.227409 -122.752872 5 12316ft 181kts
27-Oct-18 09:42 47.276964 -122.748878 5 11526ft 177kts
27-Oct-18 09:43 47.325936 -122.744786 5 10747ft 176kts
27-Oct-18 09:44 47.374824 -122.740549 5 9946ft 176kts
27-Oct-18 09:45 47.423387 -122.736106 5 9143ft 174kts
27-Oct-18 09:46 47.471352 -122.731366 5 8341ft 172kts
27-Oct-18 09:47 47.518754 -122.726234 5 7544ft 174kts
27-Oct-18 09:48 47.568642 -122.720327 5 6748ft 183kts
27-Oct-18 09:49 47.620023 -122.713180 17 5941ft 189kts
27-Oct-18 09:50 47.657653 -122.660442 45 5124ft 163kts
27-Oct-18 09:51 47.685762 -122.617600 45 4301ft 141kts
27-Oct-18 09:52 47.712193 -122.577270 45 3525ft 140kts
27-Oct-18 09:53 47.733267 -122.531512 104 2711ft 142kts
27-Oct-18 09:54 47.706542 -122.489822 135 2197ft 136kts
27-Oct-18 09:55 47.679548 -122.451221 135 2197ft 134kts
27-Oct-18 09:56 47.652635 -122.412408 134 2199ft 136kts
27-Oct-18 09:57 47.622419 -122.380599 149 1917ft 125kts
27-Oct-18 09:58 47.592677 -122.355414 149 1224ft 120kts
27-Oct-18 09:59 47.566441 -122.333340 149 632ft 104kts
27-Oct-18 10:00 47.542633 -122.312968 149 111ft 94kts
27-Oct-18 10:01 47.533894 -122.304600 96 23ft 0kts
27-Oct-18 10:02 47.536610 -122.304544 352 23ft 12kts
27-Oct-18 10:03 47.537392 -122.305214 240 23ft 0kts
27-Oct-18 10:04 47.537392 -122.305214 240 23ft 0kts
27-Oct-18 10:05 47.537392 -122.305213 240 23ft 0kts
27-Oct-18 10:06 47.537392 -122.305213 240 23ft 0kts
27-Oct-18 10:07 47.537392 -122.305213 240 23ft 0kts
27-Oct-18 10:08 47.537392 -122.305213 240 23ft 0kts
27-Oct-18 10:09 47.537392 -122.305213 240 23ft 0kts
27-Oct-18 10:10 47.537392 -122.305213 240 23ft 0kts
27-Oct-18 10:11 47.537392 -122.305213 240 23ft 0kts
27-Oct-18 10:12 47.537392 -122.305213 240 23ft 0kts
27-Oct-18 10:13 47.537392 -122.305213 240 23ft 0kts
27-Oct-18 10:14 47.537392 -122.305213 240 23ft 0kts
27-Oct-18 10:15 47.537392 -122.305213 240 23ft 0kts

Navigation Log

Ident Type
Flight plan parsing failed, navigation log unavailable